FACV

Calvinia Airport

Calvinia, South Africa
METAR FACV 180825Z 16004KT 9999 BKN035 24/09 Q1017
Observed Flight Rules
Dec-18 @ 08:25 UTC (31 minutes ago) Visual Flight Rules
Wind Visibility Clouds
160° at 4 knots 10,000+ meters
  • Broken at 3,500' AGL
Temperatures Readings
Current 24°C / 75°F
Dewpoint 9°C / 48°F
Humidity 39%
Altimeter 30.03" Hg
Pressure 1017 hPa
Elevation 977
METAR FACV 180825Z 16004KT 9999 BKN035 24/09 Q1017
Observed Flight Rules
Dec-18 @ 08:25 UTC
(31 minutes ago)
VFR
Wind Visibility
160° at 4 knots 10,000+ meters
Clouds
  • Broken at 3,500' AGL
Temperature Dewpoint
24°C / 75°F 9°C / 48°F
Humidity Altimeter Pressure
39% 30.03" Hg 1017 hPa